sensor_id;sensor_type;location;lat;lon;timestamp;P1;durP1;ratioP1;P2;durP2;ratioP2
74044;SDS011;62389;51.412;5.436;2024-01-16T00:00:21;5.32;;;2.45;;
74044;SDS011;62389;51.412;5.436;2024-01-16T00:02:47;5.95;;;3.53;;
74044;SDS011;62389;51.412;5.436;2024-01-16T00:05:12;7.13;;;3.28;;
74044;SDS011;62389;51.412;5.436;2024-01-16T00:07:38;10.95;;;4.18;;
74044;SDS011;62389;51.412;5.436;2024-01-16T00:10:06;9.00;;;3.92;;
74044;SDS011;62389;51.412;5.436;2024-01-16T00:12:32;6.88;;;3.67;;
74044;SDS011;62389;51.412;5.436;2024-01-16T00:14:58;8.43;;;3.65;;
74044;SDS011;62389;51.412;5.436;2024-01-16T00:17:23;8.93;;;5.80;;
74044;SDS011;62389;51.412;5.436;2024-01-16T00:19:48;7.85;;;4.20;;
74044;SDS011;62389;51.412;5.436;2024-01-16T00:22:14;10.00;;;4.88;;
74044;SDS011;62389;51.412;5.436;2024-01-16T00:24:39;9.60;;;4.75;;
74044;SDS011;62389;51.412;5.436;2024-01-16T00:27:05;8.23;;;3.55;;
74044;SDS011;62389;51.412;5.436;2024-01-16T00:29:30;9.77;;;5.70;;
74044;SDS011;62389;51.412;5.436;2024-01-16T00:31:56;9.68;;;4.32;;
74044;SDS011;62389;51.412;5.436;2024-01-16T00:34:21;11.05;;;3.97;;
74044;SDS011;62389;51.412;5.436;2024-01-16T00:36:47;9.40;;;4.07;;
74044;SDS011;62389;51.412;5.436;2024-01-16T00:39:12;6.72;;;3.60;;
74044;SDS011;62389;51.412;5.436;2024-01-16T00:41:38;7.07;;;3.63;;
74044;SDS011;62389;51.412;5.436;2024-01-16T00:44:04;9.40;;;4.18;;
74044;SDS011;62389;51.412;5.436;2024-01-16T00:46:29;7.95;;;3.70;;
74044;SDS011;62389;51.412;5.436;2024-01-16T00:48:55;7.70;;;3.05;;
74044;SDS011;62389;51.412;5.436;2024-01-16T00:51:20;7.72;;;3.70;;
74044;SDS011;62389;51.412;5.436;2024-01-16T00:53:46;6.70;;;3.33;;
74044;SDS011;62389;51.412;5.436;2024-01-16T00:56:12;6.70;;;2.65;;
74044;SDS011;62389;51.412;5.436;2024-01-16T00:58:37;9.20;;;3.28;;
74044;SDS011;62389;51.412;5.436;2024-01-16T01:01:03;5.15;;;2.58;;
74044;SDS011;62389;51.412;5.436;2024-01-16T01:03:29;7.50;;;3.33;;
74044;SDS011;62389;51.412;5.436;2024-01-16T01:05:55;7.97;;;2.60;;
74044;SDS011;62389;51.412;5.436;2024-01-16T01:08:20;5.97;;;2.40;;
74044;SDS011;62389;51.412;5.436;2024-01-16T01:10:46;7.43;;;2.90;;
74044;SDS011;62389;51.412;5.436;2024-01-16T01:13:12;4.28;;;2.35;;
74044;SDS011;62389;51.412;5.436;2024-01-16T01:15:37;4.63;;;2.72;;
74044;SDS011;62389;51.412;5.436;2024-01-16T01:18:03;8.43;;;3.35;;
74044;SDS011;62389;51.412;5.436;2024-01-16T01:20:29;6.15;;;2.30;;
74044;SDS011;62389;51.412;5.436;2024-01-16T01:22:54;8.00;;;2.60;;
74044;SDS011;62389;51.412;5.436;2024-01-16T01:25:20;6.55;;;2.50;;
74044;SDS011;62389;51.412;5.436;2024-01-16T01:27:45;5.80;;;2.25;;
74044;SDS011;62389;51.412;5.436;2024-01-16T01:30:11;4.68;;;2.97;;
74044;SDS011;62389;51.412;5.436;2024-01-16T01:32:37;8.35;;;2.45;;
74044;SDS011;62389;51.412;5.436;2024-01-16T01:35:02;5.43;;;2.50;;
74044;SDS011;62389;51.412;5.436;2024-01-16T01:37:28;4.72;;;2.45;;
74044;SDS011;62389;51.412;5.436;2024-01-16T01:39:54;4.55;;;2.00;;
74044;SDS011;62389;51.412;5.436;2024-01-16T01:42:19;5.75;;;1.50;;
74044;SDS011;62389;51.412;5.436;2024-01-16T01:44:44;8.18;;;2.25;;
74044;SDS011;62389;51.412;5.436;2024-01-16T01:47:10;7.45;;;1.75;;
74044;SDS011;62389;51.412;5.436;2024-01-16T01:49:35;3.17;;;1.67;;
74044;SDS011;62389;51.412;5.436;2024-01-16T01:52:02;4.10;;;1.85;;
74044;SDS011;62389;51.412;5.436;2024-01-16T01:54:29;5.03;;;1.98;;
74044;SDS011;62389;51.412;5.436;2024-01-16T01:56:57;3.72;;;1.50;;
74044;SDS011;62389;51.412;5.436;2024-01-16T01:59:22;4.07;;;1.75;;
74044;SDS011;62389;51.412;5.436;2024-01-16T02:01:49;3.88;;;1.67;;
74044;SDS011;62389;51.412;5.436;2024-01-16T02:04:17;5.43;;;1.92;;
74044;SDS011;62389;51.412;5.436;2024-01-16T02:06:45;2.95;;;1.33;;
74044;SDS011;62389;51.412;5.436;2024-01-16T02:09:11;6.20;;;2.10;;
74044;SDS011;62389;51.412;5.436;2024-01-16T02:16:34;3.73;;;1.70;;
74044;SDS011;62389;51.412;5.436;2024-01-16T02:19:04;4.85;;;2.03;;
74044;SDS011;62389;51.412;5.436;2024-01-16T02:21:31;3.78;;;1.40;;
74044;SDS011;62389;51.412;5.436;2024-01-16T02:24:02;6.63;;;2.03;;
74044;SDS011;62389;51.412;5.436;2024-01-16T02:26:30;3.35;;;1.50;;
74044;SDS011;62389;51.412;5.436;2024-01-16T02:28:55;4.88;;;1.85;;
74044;SDS011;62389;51.412;5.436;2024-01-16T02:31:21;2.95;;;1.83;;
74044;SDS011;62389;51.412;5.436;2024-01-16T02:33:46;2.85;;;1.48;;
74044;SDS011;62389;51.412;5.436;2024-01-16T02:36:12;7.80;;;2.60;;
74044;SDS011;62389;51.412;5.436;2024-01-16T02:38:37;4.43;;;1.80;;
74044;SDS011;62389;51.412;5.436;2024-01-16T02:41:03;2.67;;;1.35;;
74044;SDS011;62389;51.412;5.436;2024-01-16T02:43:29;4.93;;;1.70;;
74044;SDS011;62389;51.412;5.436;2024-01-16T02:45:54;4.78;;;1.50;;
74044;SDS011;62389;51.412;5.436;2024-01-16T02:48:20;4.30;;;1.50;;
74044;SDS011;62389;51.412;5.436;2024-01-16T02:50:45;6.88;;;2.05;;
74044;SDS011;62389;51.412;5.436;2024-01-16T02:53:11;3.42;;;1.83;;
74044;SDS011;62389;51.412;5.436;2024-01-16T02:55:36;4.20;;;1.50;;
74044;SDS011;62389;51.412;5.436;2024-01-16T02:58:02;4.47;;;1.45;;
74044;SDS011;62389;51.412;5.436;2024-01-16T03:00:28;5.72;;;1.60;;
74044;SDS011;62389;51.412;5.436;2024-01-16T03:02:53;3.78;;;1.95;;
74044;SDS011;62389;51.412;5.436;2024-01-16T03:05:19;3.33;;;1.70;;
74044;SDS011;62389;51.412;5.436;2024-01-16T03:07:44;2.70;;;1.77;;
74044;SDS011;62389;51.412;5.436;2024-01-16T03:10:10;5.05;;;2.25;;
74044;SDS011;62389;51.412;5.436;2024-01-16T03:12:36;8.35;;;3.05;;
74044;SDS011;62389;51.412;5.436;2024-01-16T03:15:01;6.85;;;2.90;;
74044;SDS011;62389;51.412;5.436;2024-01-16T03:17:27;5.88;;;3.22;;
74044;SDS011;62389;51.412;5.436;2024-01-16T03:19:53;8.57;;;3.75;;
74044;SDS011;62389;51.412;5.436;2024-01-16T03:22:18;7.20;;;3.50;;
74044;SDS011;62389;51.412;5.436;2024-01-16T03:24:43;10.75;;;3.42;;
74044;SDS011;62389;51.412;5.436;2024-01-16T03:27:09;15.95;;;4.43;;
74044;SDS011;62389;51.412;5.436;2024-01-16T03:29:34;10.75;;;4.75;;
74044;SDS011;62389;51.412;5.436;2024-01-16T03:32:00;9.43;;;4.57;;
74044;SDS011;62389;51.412;5.436;2024-01-16T03:34:26;11.13;;;4.32;;
74044;SDS011;62389;51.412;5.436;2024-01-16T03:36:52;9.30;;;4.60;;
74044;SDS011;62389;51.412;5.436;2024-01-16T03:39:17;11.25;;;6.15;;
74044;SDS011;62389;51.412;5.436;2024-01-16T03:41:43;14.18;;;5.25;;
74044;SDS011;62389;51.412;5.436;2024-01-16T03:44:08;17.02;;;5.88;;
74044;SDS011;62389;51.412;5.436;2024-01-16T03:46:34;10.40;;;4.75;;
74044;SDS011;62389;51.412;5.436;2024-01-16T03:48:59;14.27;;;6.65;;
74044;SDS011;62389;51.412;5.436;2024-01-16T03:51:25;13.35;;;4.93;;
74044;SDS011;62389;51.412;5.436;2024-01-16T03:53:50;13.82;;;5.68;;
74044;SDS011;62389;51.412;5.436;2024-01-16T03:56:16;11.85;;;5.13;;
74044;SDS011;62389;51.412;5.436;2024-01-16T03:58:41;22.67;;;6.30;;
74044;SDS011;62389;51.412;5.436;2024-01-16T04:01:07;15.35;;;5.75;;
74044;SDS011;62389;51.412;5.436;2024-01-16T04:03:33;12.05;;;5.15;;
74044;SDS011;62389;51.412;5.436;2024-01-16T04:06:00;9.98;;;4.20;;
74044;SDS011;62389;51.412;5.436;2024-01-16T04:08:25;12.07;;;5.45;;
74044;SDS011;62389;51.412;5.436;2024-01-16T04:10:51;8.35;;;5.53;;
74044;SDS011;62389;51.412;5.436;2024-01-16T04:13:16;6.95;;;4.15;;
74044;SDS011;62389;51.412;5.436;2024-01-16T04:15:41;13.20;;;5.28;;
74044;SDS011;62389;51.412;5.436;2024-01-16T04:18:07;10.05;;;4.93;;
74044;SDS011;62389;51.412;5.436;2024-01-16T04:20:32;10.82;;;5.10;;
74044;SDS011;62389;51.412;5.436;2024-01-16T04:22:58;14.10;;;4.30;;
74044;SDS011;62389;51.412;5.436;2024-01-16T04:25:23;11.77;;;5.15;;
74044;SDS011;62389;51.412;5.436;2024-01-16T04:27:49;9.35;;;4.63;;
74044;SDS011;62389;51.412;5.436;2024-01-16T04:30:14;13.63;;;4.80;;
74044;SDS011;62389;51.412;5.436;2024-01-16T04:32:40;9.38;;;4.25;;
74044;SDS011;62389;51.412;5.436;2024-01-16T04:35:05;10.73;;;4.72;;
74044;SDS011;62389;51.412;5.436;2024-01-16T04:37:31;9.05;;;4.90;;
74044;SDS011;62389;51.412;5.436;2024-01-16T04:39:56;8.88;;;4.70;;
74044;SDS011;62389;51.412;5.436;2024-01-16T04:42:23;9.68;;;4.47;;
74044;SDS011;62389;51.412;5.436;2024-01-16T04:44:48;11.88;;;4.90;;
74044;SDS011;62389;51.412;5.436;2024-01-16T04:47:14;10.68;;;4.70;;
74044;SDS011;62389;51.412;5.436;2024-01-16T04:49:41;6.82;;;4.47;;
74044;SDS011;62389;51.412;5.436;2024-01-16T04:52:07;8.95;;;4.13;;
74044;SDS011;62389;51.412;5.436;2024-01-16T04:54:32;10.13;;;5.53;;
74044;SDS011;62389;51.412;5.436;2024-01-16T04:56:57;15.27;;;4.55;;
74044;SDS011;62389;51.412;5.436;2024-01-16T04:59:23;8.63;;;3.92;;
74044;SDS011;62389;51.412;5.436;2024-01-16T05:01:48;12.18;;;4.45;;
74044;SDS011;62389;51.412;5.436;2024-01-16T05:04:13;9.65;;;4.70;;
74044;SDS011;62389;51.412;5.436;2024-01-16T05:06:39;6.20;;;3.40;;
74044;SDS011;62389;51.412;5.436;2024-01-16T05:09:04;12.50;;;4.53;;
74044;SDS011;62389;51.412;5.436;2024-01-16T05:11:30;6.70;;;4.18;;
74044;SDS011;62389;51.412;5.436;2024-01-16T05:13:55;9.57;;;3.65;;
74044;SDS011;62389;51.412;5.436;2024-01-16T05:16:26;9.98;;;4.60;;
74044;SDS011;62389;51.412;5.436;2024-01-16T05:18:52;8.43;;;4.05;;
74044;SDS011;62389;51.412;5.436;2024-01-16T05:21:18;7.38;;;3.72;;
74044;SDS011;62389;51.412;5.436;2024-01-16T05:23:43;15.18;;;4.10;;
74044;SDS011;62389;51.412;5.436;2024-01-16T05:26:09;11.55;;;3.95;;
74044;SDS011;62389;51.412;5.436;2024-01-16T05:28:34;9.85;;;3.58;;
74044;SDS011;62389;51.412;5.436;2024-01-16T05:30:59;6.13;;;3.10;;
74044;SDS011;62389;51.412;5.436;2024-01-16T05:33:25;6.88;;;3.65;;
74044;SDS011;62389;51.412;5.436;2024-01-16T05:35:50;8.52;;;4.07;;
74044;SDS011;62389;51.412;5.436;2024-01-16T05:38:16;8.98;;;4.40;;
74044;SDS011;62389;51.412;5.436;2024-01-16T05:40:41;9.85;;;3.25;;
74044;SDS011;62389;51.412;5.436;2024-01-16T05:43:07;9.02;;;3.38;;
74044;SDS011;62389;51.412;5.436;2024-01-16T05:45:32;15.18;;;4.35;;
74044;SDS011;62389;51.412;5.436;2024-01-16T05:47:57;12.63;;;3.72;;
74044;SDS011;62389;51.412;5.436;2024-01-16T05:50:23;8.27;;;3.53;;
74044;SDS011;62389;51.412;5.436;2024-01-16T05:52:48;9.38;;;3.38;;
74044;SDS011;62389;51.412;5.436;2024-01-16T05:55:14;12.18;;;4.22;;
74044;SDS011;62389;51.412;5.436;2024-01-16T05:57:39;5.07;;;3.25;;
74044;SDS011;62389;51.412;5.436;2024-01-16T06:00:05;5.97;;;3.03;;
74044;SDS011;62389;51.412;5.436;2024-01-16T06:02:31;6.50;;;3.00;;
74044;SDS011;62389;51.412;5.436;2024-01-16T06:04:57;8.70;;;3.90;;
74044;SDS011;62389;51.412;5.436;2024-01-16T06:07:22;8.60;;;3.97;;
74044;SDS011;62389;51.412;5.436;2024-01-16T06:09:48;8.48;;;3.55;;
74044;SDS011;62389;51.412;5.436;2024-01-16T06:12:13;7.78;;;3.88;;
74044;SDS011;62389;51.412;5.436;2024-01-16T06:14:38;5.18;;;3.17;;
74044;SDS011;62389;51.412;5.436;2024-01-16T06:17:04;8.95;;;4.43;;
74044;SDS011;62389;51.412;5.436;2024-01-16T06:19:33;11.68;;;3.60;;
74044;SDS011;62389;51.412;5.436;2024-01-16T06:21:58;7.85;;;3.38;;
74044;SDS011;62389;51.412;5.436;2024-01-16T06:24:24;7.28;;;3.67;;
74044;SDS011;62389;51.412;5.436;2024-01-16T06:26:50;11.38;;;3.92;;
74044;SDS011;62389;51.412;5.436;2024-01-16T06:29:15;5.30;;;3.42;;
74044;SDS011;62389;51.412;5.436;2024-01-16T06:31:41;9.50;;;3.55;;
74044;SDS011;62389;51.412;5.436;2024-01-16T06:34:06;10.05;;;3.20;;
74044;SDS011;62389;51.412;5.436;2024-01-16T06:36:31;7.47;;;3.30;;
74044;SDS011;62389;51.412;5.436;2024-01-16T06:38:57;6.75;;;3.72;;
74044;SDS011;62389;51.412;5.436;2024-01-16T06:41:23;8.88;;;3.40;;
74044;SDS011;62389;51.412;5.436;2024-01-16T06:43:48;7.03;;;3.97;;
74044;SDS011;62389;51.412;5.436;2024-01-16T06:46:14;8.75;;;3.65;;
74044;SDS011;62389;51.412;5.436;2024-01-16T06:48:39;14.20;;;3.97;;
74044;SDS011;62389;51.412;5.436;2024-01-16T06:51:05;4.95;;;3.33;;
74044;SDS011;62389;51.412;5.436;2024-01-16T06:53:30;10.85;;;3.72;;
74044;SDS011;62389;51.412;5.436;2024-01-16T06:55:56;9.48;;;3.15;;
74044;SDS011;62389;51.412;5.436;2024-01-16T06:58:21;12.40;;;4.10;;
74044;SDS011;62389;51.412;5.436;2024-01-16T07:00:47;9.98;;;3.92;;
74044;SDS011;62389;51.412;5.436;2024-01-16T07:03:13;11.02;;;3.47;;
74044;SDS011;62389;51.412;5.436;2024-01-16T07:05:38;7.20;;;2.80;;
74044;SDS011;62389;51.412;5.436;2024-01-16T07:08:05;7.80;;;3.70;;
74044;SDS011;62389;51.412;5.436;2024-01-16T07:10:31;12.95;;;3.80;;
74044;SDS011;62389;51.412;5.436;2024-01-16T07:12:57;9.38;;;3.40;;
74044;SDS011;62389;51.412;5.436;2024-01-16T07:15:22;7.85;;;3.47;;
74044;SDS011;62389;51.412;5.436;2024-01-16T07:17:47;8.15;;;3.13;;
74044;SDS011;62389;51.412;5.436;2024-01-16T07:20:13;11.40;;;3.72;;
74044;SDS011;62389;51.412;5.436;2024-01-16T07:22:38;10.93;;;3.70;;
74044;SDS011;62389;51.412;5.436;2024-01-16T07:25:06;10.73;;;3.63;;
74044;SDS011;62389;51.412;5.436;2024-01-16T07:27:32;7.47;;;3.47;;
74044;SDS011;62389;51.412;5.436;2024-01-16T07:29:59;9.18;;;3.58;;
74044;SDS011;62389;51.412;5.436;2024-01-16T07:32:24;10.40;;;4.72;;
74044;SDS011;62389;51.412;5.436;2024-01-16T07:34:49;8.05;;;3.95;;
74044;SDS011;62389;51.412;5.436;2024-01-16T07:37:16;8.45;;;3.17;;
74044;SDS011;62389;51.412;5.436;2024-01-16T07:39:42;9.77;;;3.70;;
74044;SDS011;62389;51.412;5.436;2024-01-16T07:42:08;10.30;;;3.85;;
74044;SDS011;62389;51.412;5.436;2024-01-16T07:44:33;5.80;;;3.10;;
74044;SDS011;62389;51.412;5.436;2024-01-16T07:46:59;6.55;;;3.40;;
74044;SDS011;62389;51.412;5.436;2024-01-16T07:49:24;8.13;;;3.95;;
74044;SDS011;62389;51.412;5.436;2024-01-16T07:51:50;10.68;;;3.60;;
74044;SDS011;62389;51.412;5.436;2024-01-16T07:54:15;8.68;;;3.83;;
74044;SDS011;62389;51.412;5.436;2024-01-16T07:56:40;8.70;;;4.00;;
74044;SDS011;62389;51.412;5.436;2024-01-16T07:59:06;6.45;;;4.20;;
74044;SDS011;62389;51.412;5.436;2024-01-16T08:01:32;7.43;;;4.43;;
74044;SDS011;62389;51.412;5.436;2024-01-16T08:03:58;8.55;;;4.38;;
74044;SDS011;62389;51.412;5.436;2024-01-16T08:06:23;7.68;;;3.38;;
74044;SDS011;62389;51.412;5.436;2024-01-16T08:08:49;8.55;;;4.57;;
74044;SDS011;62389;51.412;5.436;2024-01-16T08:11:15;7.90;;;4.43;;
74044;SDS011;62389;51.412;5.436;2024-01-16T08:13:41;6.43;;;3.50;;
74044;SDS011;62389;51.412;5.436;2024-01-16T08:16:07;7.97;;;3.58;;
74044;SDS011;62389;51.412;5.436;2024-01-16T08:18:32;9.95;;;4.00;;
74044;SDS011;62389;51.412;5.436;2024-01-16T08:20:58;7.22;;;4.05;;
74044;SDS011;62389;51.412;5.436;2024-01-16T08:23:23;12.57;;;4.50;;
74044;SDS011;62389;51.412;5.436;2024-01-16T08:25:48;9.13;;;3.80;;
74044;SDS011;62389;51.412;5.436;2024-01-16T08:28:16;15.95;;;4.68;;
74044;SDS011;62389;51.412;5.436;2024-01-16T08:30:42;9.95;;;3.30;;
74044;SDS011;62389;51.412;5.436;2024-01-16T08:33:07;9.38;;;4.03;;
74044;SDS011;62389;51.412;5.436;2024-01-16T08:35:33;9.98;;;3.67;;
74044;SDS011;62389;51.412;5.436;2024-01-16T08:37:58;6.05;;;3.63;;
74044;SDS011;62389;51.412;5.436;2024-01-16T08:40:23;9.45;;;4.30;;
74044;SDS011;62389;51.412;5.436;2024-01-16T08:42:49;9.40;;;3.58;;
74044;SDS011;62389;51.412;5.436;2024-01-16T08:45:19;9.25;;;4.68;;
74044;SDS011;62389;51.412;5.436;2024-01-16T08:47:45;12.00;;;4.25;;
74044;SDS011;62389;51.412;5.436;2024-01-16T08:50:10;10.02;;;4.13;;
74044;SDS011;62389;51.412;5.436;2024-01-16T08:52:35;7.53;;;3.17;;
74044;SDS011;62389;51.412;5.436;2024-01-16T08:55:01;10.13;;;3.70;;
74044;SDS011;62389;51.412;5.436;2024-01-16T08:57:27;8.68;;;4.03;;
74044;SDS011;62389;51.412;5.436;2024-01-16T08:59:52;7.78;;;3.67;;
74044;SDS011;62389;51.412;5.436;2024-01-16T09:02:18;11.98;;;4.35;;
74044;SDS011;62389;51.412;5.436;2024-01-16T09:04:43;6.68;;;3.55;;
74044;SDS011;62389;51.412;5.436;2024-01-16T09:07:08;6.82;;;3.90;;
74044;SDS011;62389;51.412;5.436;2024-01-16T09:09:34;8.88;;;3.80;;
74044;SDS011;62389;51.412;5.436;2024-01-16T09:11:59;10.85;;;3.97;;
74044;SDS011;62389;51.412;5.436;2024-01-16T09:14:25;9.93;;;4.18;;
74044;SDS011;62389;51.412;5.436;2024-01-16T09:16:50;8.32;;;3.30;;
74044;SDS011;62389;51.412;5.436;2024-01-16T09:19:16;7.60;;;3.90;;
74044;SDS011;62389;51.412;5.436;2024-01-16T09:21:41;7.25;;;3.78;;
74044;SDS011;62389;51.412;5.436;2024-01-16T09:24:06;9.10;;;4.40;;
74044;SDS011;62389;51.412;5.436;2024-01-16T09:26:32;8.65;;;4.07;;
74044;SDS011;62389;51.412;5.436;2024-01-16T09:28:58;6.82;;;4.38;;
74044;SDS011;62389;51.412;5.436;2024-01-16T09:31:23;8.68;;;4.20;;
74044;SDS011;62389;51.412;5.436;2024-01-16T09:33:49;8.85;;;4.75;;
74044;SDS011;62389;51.412;5.436;2024-01-16T09:36:15;9.27;;;3.45;;
74044;SDS011;62389;51.412;5.436;2024-01-16T09:38:40;6.95;;;3.88;;
74044;SDS011;62389;51.412;5.436;2024-01-16T09:41:06;8.13;;;4.18;;
74044;SDS011;62389;51.412;5.436;2024-01-16T09:43:31;7.55;;;3.55;;
74044;SDS011;62389;51.412;5.436;2024-01-16T09:46:00;8.82;;;4.07;;
74044;SDS011;62389;51.412;5.436;2024-01-16T09:48:27;8.23;;;3.60;;
74044;SDS011;62389;51.412;5.436;2024-01-16T09:50:54;8.70;;;3.90;;
74044;SDS011;62389;51.412;5.436;2024-01-16T09:53:20;8.55;;;4.03;;
74044;SDS011;62389;51.412;5.436;2024-01-16T09:55:46;8.43;;;4.43;;
74044;SDS011;62389;51.412;5.436;2024-01-16T09:58:14;8.65;;;4.55;;
74044;SDS011;62389;51.412;5.436;2024-01-16T10:00:41;9.38;;;4.95;;
74044;SDS011;62389;51.412;5.436;2024-01-16T10:03:09;8.90;;;3.40;;
74044;SDS011;62389;51.412;5.436;2024-01-16T10:05:38;6.95;;;3.47;;
74044;SDS011;62389;51.412;5.436;2024-01-16T10:08:07;10.68;;;4.50;;
74044;SDS011;62389;51.412;5.436;2024-01-16T10:10:33;10.02;;;3.95;;
74044;SDS011;62389;51.412;5.436;2024-01-16T10:12:58;8.77;;;3.83;;
74044;SDS011;62389;51.412;5.436;2024-01-16T10:15:25;7.85;;;4.05;;
74044;SDS011;62389;51.412;5.436;2024-01-16T10:17:50;7.78;;;4.10;;
74044;SDS011;62389;51.412;5.436;2024-01-16T10:20:16;8.60;;;4.03;;
74044;SDS011;62389;51.412;5.436;2024-01-16T10:22:56;12.18;;;3.90;;
74044;SDS011;62389;51.412;5.436;2024-01-16T10:25:23;10.63;;;5.07;;
74044;SDS011;62389;51.412;5.436;2024-01-16T10:27:49;9.02;;;3.95;;
74044;SDS011;62389;51.412;5.436;2024-01-16T10:30:14;8.32;;;3.67;;
74044;SDS011;62389;51.412;5.436;2024-01-16T10:32:40;7.15;;;4.32;;
74044;SDS011;62389;51.412;5.436;2024-01-16T10:35:10;9.05;;;4.55;;
74044;SDS011;62389;51.412;5.436;2024-01-16T10:38:10;8.48;;;4.00;;
74044;SDS011;62389;51.412;5.436;2024-01-16T10:40:28;8.50;;;3.20;;
74044;SDS011;62389;51.412;5.436;2024-01-16T10:42:59;9.18;;;4.15;;
74044;SDS011;62389;51.412;5.436;2024-01-16T10:45:26;8.93;;;5.07;;
74044;SDS011;62389;51.412;5.436;2024-01-16T10:48:02;6.75;;;3.72;;
74044;SDS011;62389;51.412;5.436;2024-01-16T10:50:29;8.70;;;4.20;;
74044;SDS011;62389;51.412;5.436;2024-01-16T10:52:55;7.18;;;4.07;;
74044;SDS011;62389;51.412;5.436;2024-01-16T10:55:23;8.07;;;4.72;;
74044;SDS011;62389;51.412;5.436;2024-01-16T10:57:49;16.13;;;4.38;;
74044;SDS011;62389;51.412;5.436;2024-01-16T11:00:21;8.23;;;3.60;;
74044;SDS011;62389;51.412;5.436;2024-01-16T11:02:58;7.38;;;4.93;;
74044;SDS011;62389;51.412;5.436;2024-01-16T11:05:29;9.65;;;4.00;;
74044;SDS011;62389;51.412;5.436;2024-01-16T11:07:58;7.22;;;3.83;;
74044;SDS011;62389;51.412;5.436;2024-01-16T11:10:26;10.95;;;4.30;;
74044;SDS011;62389;51.412;5.436;2024-01-16T11:12:52;7.55;;;3.80;;
74044;SDS011;62389;51.412;5.436;2024-01-16T11:15:18;8.63;;;3.67;;
74044;SDS011;62389;51.412;5.436;2024-01-16T11:17:44;7.43;;;3.88;;
74044;SDS011;62389;51.412;5.436;2024-01-16T11:20:11;10.07;;;4.20;;
74044;SDS011;62389;51.412;5.436;2024-01-16T11:22:39;6.93;;;3.85;;
74044;SDS011;62389;51.412;5.436;2024-01-16T11:25:13;6.13;;;3.33;;
74044;SDS011;62389;51.412;5.436;2024-01-16T11:27:41;8.52;;;4.15;;
74044;SDS011;62389;51.412;5.436;2024-01-16T11:30:07;6.43;;;3.38;;
74044;SDS011;62389;51.412;5.436;2024-01-16T11:32:39;8.73;;;4.35;;
74044;SDS011;62389;51.412;5.436;2024-01-16T11:35:06;7.38;;;3.75;;
74044;SDS011;62389;51.412;5.436;2024-01-16T11:37:36;7.05;;;3.28;;
74044;SDS011;62389;51.412;5.436;2024-01-16T11:42:47;7.15;;;4.13;;
74044;SDS011;62389;51.412;5.436;2024-01-16T11:50:38;8.65;;;4.13;;
74044;SDS011;62389;51.412;5.436;2024-01-16T11:53:05;11.05;;;4.80;;
74044;SDS011;62389;51.412;5.436;2024-01-16T11:55:31;9.70;;;3.80;;
74044;SDS011;62389;51.412;5.436;2024-01-16T12:00:32;10.23;;;4.55;;
74044;SDS011;62389;51.412;5.436;2024-01-16T12:02:58;8.43;;;4.55;;
74044;SDS011;62389;51.412;5.436;2024-01-16T12:05:28;7.60;;;3.80;;
74044;SDS011;62389;51.412;5.436;2024-01-16T12:07:54;6.63;;;3.67;;
74044;SDS011;62389;51.412;5.436;2024-01-16T12:10:20;12.80;;;4.70;;
74044;SDS011;62389;51.412;5.436;2024-01-16T12:12:47;8.85;;;4.20;;
74044;SDS011;62389;51.412;5.436;2024-01-16T12:15:22;7.78;;;3.90;;
74044;SDS011;62389;51.412;5.436;2024-01-16T12:18:05;7.85;;;4.03;;
74044;SDS011;62389;51.412;5.436;2024-01-16T12:20:33;11.00;;;3.83;;
74044;SDS011;62389;51.412;5.436;2024-01-16T12:23:06;7.10;;;3.75;;
74044;SDS011;62389;51.412;5.436;2024-01-16T12:25:36;8.68;;;3.90;;
74044;SDS011;62389;51.412;5.436;2024-01-16T12:28:03;7.07;;;3.70;;
74044;SDS011;62389;51.412;5.436;2024-01-16T12:30:31;8.32;;;3.90;;
74044;SDS011;62389;51.412;5.436;2024-01-16T12:33:08;7.75;;;3.85;;
74044;SDS011;62389;51.412;5.436;2024-01-16T12:35:44;6.72;;;3.78;;
74044;SDS011;62389;51.412;5.436;2024-01-16T12:38:10;8.77;;;3.40;;
74044;SDS011;62389;51.412;5.436;2024-01-16T12:40:47;8.45;;;4.20;;
74044;SDS011;62389;51.412;5.436;2024-01-16T12:43:18;7.43;;;3.72;;
74044;SDS011;62389;51.412;5.436;2024-01-16T12:45:43;6.90;;;3.70;;
74044;SDS011;62389;51.412;5.436;2024-01-16T12:48:10;7.90;;;3.92;;
74044;SDS011;62389;51.412;5.436;2024-01-16T12:50:35;8.60;;;3.20;;
74044;SDS011;62389;51.412;5.436;2024-01-16T12:53:03;7.53;;;2.92;;
74044;SDS011;62389;51.412;5.436;2024-01-16T12:55:33;7.07;;;3.60;;
74044;SDS011;62389;51.412;5.436;2024-01-16T12:58:15;6.20;;;3.33;;
74044;SDS011;62389;51.412;5.436;2024-01-16T13:00:49;5.97;;;3.47;;
74044;SDS011;62389;51.412;5.436;2024-01-16T13:03:20;7.45;;;3.50;;
74044;SDS011;62389;51.412;5.436;2024-01-16T13:05:54;6.47;;;3.50;;
74044;SDS011;62389;51.412;5.436;2024-01-16T13:08:23;6.13;;;3.08;;
74044;SDS011;62389;51.412;5.436;2024-01-16T13:13:32;6.00;;;3.05;;
74044;SDS011;62389;51.412;5.436;2024-01-16T13:15:58;6.65;;;3.30;;
74044;SDS011;62389;51.412;5.436;2024-01-16T13:18:25;5.53;;;2.85;;
74044;SDS011;62389;51.412;5.436;2024-01-16T13:20:55;8.75;;;2.80;;
74044;SDS011;62389;51.412;5.436;2024-01-16T13:23:22;6.60;;;2.95;;
74044;SDS011;62389;51.412;5.436;2024-01-16T13:25:50;5.25;;;2.58;;
74044;SDS011;62389;51.412;5.436;2024-01-16T13:28:16;5.38;;;3.30;;
74044;SDS011;62389;51.412;5.436;2024-01-16T13:30:43;7.95;;;2.72;;
74044;SDS011;62389;51.412;5.436;2024-01-16T13:33:09;8.32;;;3.33;;
74044;SDS011;62389;51.412;5.436;2024-01-16T13:35:35;6.53;;;3.03;;
74044;SDS011;62389;51.412;5.436;2024-01-16T13:38:03;6.55;;;3.03;;
74044;SDS011;62389;51.412;5.436;2024-01-16T13:40:29;7.85;;;3.00;;
74044;SDS011;62389;51.412;5.436;2024-01-16T13:42:54;5.22;;;3.10;;
74044;SDS011;62389;51.412;5.436;2024-01-16T13:45:20;5.70;;;2.78;;
74044;SDS011;62389;51.412;5.436;2024-01-16T13:47:45;7.68;;;3.30;;
74044;SDS011;62389;51.412;5.436;2024-01-16T13:50:11;10.73;;;2.92;;
74044;SDS011;62389;51.412;5.436;2024-01-16T13:52:37;8.00;;;2.88;;
74044;SDS011;62389;51.412;5.436;2024-01-16T13:55:03;6.35;;;2.80;;
74044;SDS011;62389;51.412;5.436;2024-01-16T13:57:33;7.30;;;3.15;;
74044;SDS011;62389;51.412;5.436;2024-01-16T14:00:04;6.55;;;3.10;;
74044;SDS011;62389;51.412;5.436;2024-01-16T14:02:32;8.30;;;3.53;;
74044;SDS011;62389;51.412;5.436;2024-01-16T14:04:59;8.52;;;2.85;;
74044;SDS011;62389;51.412;5.436;2024-01-16T14:07:25;5.10;;;3.40;;
74044;SDS011;62389;51.412;5.436;2024-01-16T14:09:50;5.10;;;2.83;;
74044;SDS011;62389;51.412;5.436;2024-01-16T14:12:16;6.65;;;3.58;;
74044;SDS011;62389;51.412;5.436;2024-01-16T14:14:43;7.57;;;3.45;;
74044;SDS011;62389;51.412;5.436;2024-01-16T14:17:10;6.72;;;3.53;;
74044;SDS011;62389;51.412;5.436;2024-01-16T14:19:36;7.00;;;3.63;;
74044;SDS011;62389;51.412;5.436;2024-01-16T14:22:03;7.68;;;3.08;;
74044;SDS011;62389;51.412;5.436;2024-01-16T14:24:29;9.55;;;3.17;;
74044;SDS011;62389;51.412;5.436;2024-01-16T14:26:54;6.20;;;3.22;;
74044;SDS011;62389;51.412;5.436;2024-01-16T14:29:21;9.05;;;3.05;;
74044;SDS011;62389;51.412;5.436;2024-01-16T14:31:48;6.88;;;2.92;;
74044;SDS011;62389;51.412;5.436;2024-01-16T14:34:13;4.85;;;2.92;;
74044;SDS011;62389;51.412;5.436;2024-01-16T14:36:40;4.57;;;2.80;;
74044;SDS011;62389;51.412;5.436;2024-01-16T14:39:06;7.97;;;3.03;;
74044;SDS011;62389;51.412;5.436;2024-01-16T14:41:32;4.50;;;3.15;;
74044;SDS011;62389;51.412;5.436;2024-01-16T14:43:57;5.03;;;2.88;;
74044;SDS011;62389;51.412;5.436;2024-01-16T14:46:23;6.15;;;3.10;;
74044;SDS011;62389;51.412;5.436;2024-01-16T14:48:48;7.05;;;3.13;;
74044;SDS011;62389;51.412;5.436;2024-01-16T14:51:14;8.00;;;3.17;;
74044;SDS011;62389;51.412;5.436;2024-01-16T14:53:39;8.65;;;2.78;;
74044;SDS011;62389;51.412;5.436;2024-01-16T14:56:05;5.55;;;2.90;;
74044;SDS011;62389;51.412;5.436;2024-01-16T14:58:30;5.80;;;3.13;;